Time;durP1;ratioP1;P1;durP2;ratioP2;P2;SDS_P1;SDS_P2;PMS_P1;PMS_P2;Temp;Humidity;BMP_temperature;BMP_pressure;BME280_temperature;BME280_humidity;BME280_pressure;Samples;Min_cycle;Max_cycle;Signal;HPM_P1;HPM_P2
2021/03/22 00:02:09;;;;;;;1.90;1.80;;;18.10;68.10;;;;;;5048963;28;20033;-37
2021/03/22 00:04:35;;;;;;;1.55;1.45;;;18.10;67.90;;;;;;5048778;28;20029;-36
2021/03/22 00:07:00;;;;;;;1.40;1.40;;;18.10;67.80;;;;;;5048550;28;20035;-37
2021/03/22 00:09:26;;;;;;;1.92;1.83;;;18.20;67.70;;;;;;5049014;28;20051;-38
2021/03/22 00:11:52;;;;;;;1.88;1.77;;;18.10;68.50;;;;;;5048952;28;20395;-35
2021/03/22 00:14:17;;;;;;;1.73;1.63;;;18.10;67.60;;;;;;5049526;28;20531;-35
2021/03/22 00:16:43;;;;;;;2.35;1.80;;;18.10;67.70;;;;;;5049335;28;20119;-36
2021/03/22 00:19:08;;;;;;;1.70;1.60;;;18.10;67.70;;;;;;5049487;28;20087;-32
2021/03/22 00:21:34;;;;;;;1.95;1.60;;;18.10;67.60;;;;;;5049151;28;20044;-35
2021/03/22 00:24:00;;;;;;;1.88;1.40;;;18.10;67.60;;;;;;5052156;28;20119;-35
2021/03/22 00:26:25;;;;;;;1.50;1.40;;;18.10;67.50;;;;;;5050486;28;20548;-35
2021/03/22 00:28:51;;;;;;;1.80;1.70;;;18.20;67.40;;;;;;5049171;28;20021;-32
2021/03/22 00:31:17;;;;;;;1.50;1.40;;;18.10;67.30;;;;;;5050431;28;20040;-35
2021/03/22 00:33:42;;;;;;;1.52;1.35;;;18.10;67.30;;;;;;5049388;28;20064;-35
2021/03/22 00:36:08;;;;;;;1.23;1.23;;;18.10;67.40;;;;;;5042205;28;20103;-35
2021/03/22 00:38:34;;;;;;;1.95;1.75;;;18.10;67.20;;;;;;5044145;28;20033;-34
2021/03/22 00:41:00;;;;;;;1.48;1.38;;;18.10;67.40;;;;;;5048978;28;20043;-35
2021/03/22 00:43:25;;;;;;;1.40;1.30;;;18.10;67.40;;;;;;5048938;28;20032;-34
2021/03/22 00:45:55;;;;;;;3.13;1.48;;;18.10;67.30;;;;;;5049063;28;20025;-34
2021/03/22 00:48:21;;;;;;;1.45;1.40;;;18.10;67.30;;;;;;5049747;28;20541;-35
2021/03/22 00:50:46;;;;;;;1.40;1.30;;;18.20;67.10;;;;;;5051955;28;20025;-35
2021/03/22 00:53:13;;;;;;;1.63;1.52;;;18.10;67.00;;;;;;5048882;28;20071;-34
2021/03/22 00:55:39;;;;;;;1.42;1.33;;;18.20;67.00;;;;;;5048815;28;20078;-35
2021/03/22 00:58:04;;;;;;;1.55;1.45;;;18.10;66.80;;;;;;5048724;28;20029;-35
2021/03/22 01:00:35;;;;;;;1.48;1.40;;;18.10;66.90;;;;;;5049586;28;20116;-36
2021/03/22 01:03:01;;;;;;;1.33;1.27;;;18.10;66.60;;;;;;5051378;28;20394;-34
2021/03/22 01:05:26;;;;;;;1.60;1.50;;;18.10;66.50;;;;;;5049612;28;20112;-36
2021/03/22 01:07:52;;;;;;;1.83;1.40;;;18.10;66.50;;;;;;5049570;28;20056;-35
2021/03/22 01:10:45;;;;;;;1.33;1.30;;;18.20;66.30;;;;;;5055268;28;20036;-35
2021/03/22 01:13:15;;;;;;;1.20;1.20;;;18.20;66.10;;;;;;5046676;28;20045;-35
2021/03/22 01:15:41;;;;;;;1.30;1.30;;;18.20;66.20;;;;;;5048393;28;20446;-35
2021/03/22 01:18:06;;;;;;;1.40;1.40;;;18.20;66.00;;;;;;5050801;28;20060;-36
2021/03/22 01:20:39;;;;;;;1.10;1.10;;;18.20;66.00;;;;;;5049626;28;20025;-36
2021/03/22 01:23:04;;;;;;;1.42;1.38;;;18.20;66.00;;;;;;5048231;28;20029;-35
2021/03/22 01:25:30;;;;;;;1.38;1.27;;;18.20;66.00;;;;;;5048124;28;20025;-34
2021/03/22 01:27:56;;;;;;;1.20;1.10;;;18.20;66.00;;;;;;5048311;28;20390;-35
2021/03/22 01:30:24;;;;;;;1.08;1.08;;;18.20;66.10;;;;;;5043329;28;20025;-35
2021/03/22 01:32:50;;;;;;;1.63;1.20;;;18.20;66.10;;;;;;5051953;28;20029;-36
2021/03/22 01:35:16;;;;;;;1.20;1.20;;;18.20;66.10;;;;;;5047231;28;20114;-34
2021/03/22 01:37:42;;;;;;;1.20;1.20;;;18.20;66.20;;;;;;5048192;28;20053;-35
2021/03/22 01:40:28;;;;;;;1.58;1.30;;;18.10;66.30;;;;;;5049304;28;20033;-35
2021/03/22 01:43:05;;;;;;;1.20;1.20;;;18.10;66.40;;;;;;5047744;28;20619;-34
2021/03/22 01:45:30;;;;;;;0.98;0.98;;;18.10;66.40;;;;;;5018368;28;20408;-35
2021/03/22 01:47:56;;;;;;;1.33;1.23;;;18.10;66.30;;;;;;5051583;28;20017;-34
2021/03/22 01:50:25;;;;;;;1.10;1.10;;;18.10;66.40;;;;;;5048227;28;20033;-34
2021/03/22 01:52:50;;;;;;;1.63;1.30;;;18.10;66.50;;;;;;5047753;28;20410;-34
2021/03/22 01:55:17;;;;;;;1.23;1.20;;;18.10;66.30;;;;;;5045058;28;20105;-34
2021/03/22 01:57:44;;;;;;;1.40;1.30;;;18.00;66.30;;;;;;5048079;28;20053;-35
2021/03/22 02:00:13;;;;;;;1.05;1.02;;;18.10;66.20;;;;;;5050045;28;20036;-36
2021/03/22 02:02:39;;;;;;;1.45;1.13;;;18.10;66.30;;;;;;5049603;28;20095;-39
2021/03/22 02:05:06;;;;;;;1.15;1.10;;;18.10;66.10;;;;;;5049324;28;20414;-35
2021/03/22 02:07:32;;;;;;;1.65;1.35;;;18.00;66.30;;;;;;5047744;28;20557;-36
2021/03/22 02:09:58;;;;;;;1.52;1.10;;;18.00;66.40;;;;;;5045072;28;20026;-35
2021/03/22 02:12:23;;;;;;;1.10;1.00;;;18.10;66.40;;;;;;5048322;28;20037;-34
2021/03/22 02:14:49;;;;;;;1.00;0.98;;;18.10;66.30;;;;;;5051162;28;20395;-36
2021/03/22 02:17:35;;;;;;;1.00;1.00;;;18.10;66.10;;;;;;5047414;28;20060;-33
2021/03/22 02:20:22;;;;;;;1.40;1.38;;;18.10;65.90;;;;;;5044790;28;20100;-36
2021/03/22 02:23:02;;;;;;;1.55;1.10;;;18.10;65.90;;;;;;5047381;28;20044;-34
2021/03/22 02:25:47;;;;;;;1.08;1.00;;;18.10;66.00;;;;;;5047557;28;20059;-36
2021/03/22 02:28:48;;;;;;;1.15;1.00;;;18.10;66.00;;;;;;5048926;28;20497;-34
2021/03/22 02:31:36;;;;;;;0.90;0.90;;;18.10;66.00;;;;;;5038569;28;20059;-34
2021/03/22 02:34:25;;;;;;;1.30;1.20;;;18.10;65.90;;;;;;5039071;28;20037;-34
2021/03/22 02:37:15;;;;;;;1.27;1.13;;;18.10;66.10;;;;;;5047924;28;20608;-35
2021/03/22 02:40:08;;;;;;;1.40;1.30;;;18.00;66.00;;;;;;5033881;28;20063;-35
2021/03/22 02:42:34;;;;;;;1.05;1.05;;;18.00;65.90;;;;;;5021196;28;20072;-35
2021/03/22 02:45:00;;;;;;;1.58;1.40;;;18.00;66.10;;;;;;5032803;28;20025;-33
2021/03/22 02:47:36;;;;;;;1.52;1.20;;;18.00;66.10;;;;;;5050797;28;20033;-38
2021/03/22 02:50:06;;;;;;;1.20;1.10;;;18.00;66.10;;;;;;5050897;28;20454;-36
2021/03/22 02:52:56;;;;;;;1.13;1.00;;;18.00;66.00;;;;;;5031674;28;20380;-34
2021/03/22 02:55:37;;;;;;;1.17;1.08;;;18.00;66.20;;;;;;5048884;28;20499;-35
2021/03/22 02:58:07;;;;;;;1.20;1.20;;;18.00;66.10;;;;;;5023820;28;20024;-35
2021/03/22 03:00:50;;;;;;;2.72;1.25;;;18.00;66.10;;;;;;5035441;28;20021;-34
2021/03/22 03:03:17;;;;;;;1.05;1.05;;;18.00;66.10;;;;;;5036288;28;20513;-34
2021/03/22 03:05:48;;;;;;;1.45;1.35;;;17.90;66.30;;;;;;5029306;28;20434;-36
2021/03/22 03:08:14;;;;;;;1.20;1.10;;;18.00;66.50;;;;;;5051198;28;20112;-36
2021/03/22 03:10:40;;;;;;;1.25;1.13;;;17.90;66.50;;;;;;5047760;28;20566;-34
2021/03/22 03:13:05;;;;;;;1.08;0.98;;;17.90;66.30;;;;;;5050772;28;20078;-35
2021/03/22 03:15:31;;;;;;;1.27;1.17;;;17.90;66.20;;;;;;5046185;28;20033;-34
2021/03/22 03:17:57;;;;;;;1.23;1.13;;;17.90;66.70;;;;;;5054223;28;20029;-34
2021/03/22 03:20:25;;;;;;;1.27;1.17;;;17.90;66.20;;;;;;5052553;28;20021;-35
2021/03/22 03:22:50;;;;;;;1.40;1.30;;;17.90;66.30;;;;;;5050374;28;20041;-34
2021/03/22 03:25:16;;;;;;;1.33;1.10;;;17.90;66.00;;;;;;5050444;28;20454;-34
2021/03/22 03:27:42;;;;;;;0.90;0.90;;;17.90;65.10;;;;;;5050426;28;20092;-35
2021/03/22 03:30:09;;;;;;;1.10;1.10;;;17.90;65.40;;;;;;5051351;28;20040;-35
2021/03/22 03:32:35;;;;;;;1.63;1.10;;;17.80;65.90;;;;;;5051759;28;20036;-35
2021/03/22 03:35:02;;;;;;;1.48;1.38;;;17.80;66.40;;;;;;5050270;28;20025;-34
2021/03/22 03:37:28;;;;;;;2.03;1.40;;;17.80;66.60;;;;;;5047348;28;20430;-35
2021/03/22 03:39:53;;;;;;;1.27;1.15;;;17.70;66.60;;;;;;5050279;28;20017;-34
2021/03/22 03:42:19;;;;;;;1.25;1.05;;;17.70;66.60;;;;;;5051294;28;20033;-35
2021/03/22 03:44:44;;;;;;;1.27;1.17;;;17.70;66.70;;;;;;5042498;28;20104;-34
2021/03/22 03:47:10;;;;;;;1.30;1.20;;;17.70;66.60;;;;;;5048421;28;20040;-34
2021/03/22 03:49:35;;;;;;;1.13;1.02;;;17.70;66.90;;;;;;5049869;28;20463;-34
2021/03/22 03:52:03;;;;;;;1.58;1.30;;;17.70;67.70;;;;;;5049884;28;20550;-36
2021/03/22 03:54:28;;;;;;;1.70;1.05;;;17.70;66.90;;;;;;5050270;28;20102;-39
2021/03/22 03:56:54;;;;;;;1.00;1.00;;;17.70;67.10;;;;;;5053519;28;20057;-34
2021/03/22 03:59:19;;;;;;;1.23;1.08;;;17.70;67.20;;;;;;5044893;28;20524;-36
2021/03/22 04:01:45;;;;;;;0.90;0.90;;;17.60;67.40;;;;;;5049926;28;20029;-35
2021/03/22 04:04:11;;;;;;;1.38;1.27;;;17.60;67.30;;;;;;5049829;28;20099;-39
2021/03/22 04:06:36;;;;;;;1.13;1.10;;;17.60;67.80;;;;;;5044786;28;20052;-35
2021/03/22 04:09:06;;;;;;;1.23;1.13;;;17.60;67.80;;;;;;5050654;28;20561;-36
2021/03/22 04:11:43;;;;;;;1.17;1.10;;;17.60;67.50;;;;;;5050122;28;20051;-36
2021/03/22 04:14:13;;;;;;;0.93;0.80;;;17.70;67.60;;;;;;5050859;28;20499;-36
2021/03/22 04:16:38;;;;;;;1.30;1.15;;;17.70;67.80;;;;;;5048016;28;20126;-35
2021/03/22 04:19:04;;;;;;;0.80;0.80;;;17.70;67.60;;;;;;5050137;28;20103;-36
2021/03/22 04:21:30;;;;;;;1.30;1.20;;;17.70;67.50;;;;;;5048601;28;20083;-39
2021/03/22 04:23:57;;;;;;;0.80;0.80;;;17.80;67.40;;;;;;5049930;28;20067;-38
2021/03/22 04:26:22;;;;;;;0.90;0.88;;;17.80;67.10;;;;;;5049216;28;20033;-36
2021/03/22 04:28:48;;;;;;;1.13;1.05;;;17.80;67.10;;;;;;5046169;28;20033;-35
2021/03/22 04:31:18;;;;;;;0.90;0.90;;;17.80;66.80;;;;;;5048205;28;20025;-36
2021/03/22 04:33:43;;;;;;;0.90;0.90;;;17.90;66.50;;;;;;5049605;28;20033;-37
2021/03/22 04:36:09;;;;;;;0.90;0.90;;;18.00;66.30;;;;;;5048868;28;20509;-36
2021/03/22 04:38:35;;;;;;;0.90;0.90;;;18.00;66.30;;;;;;5049027;28;20025;-37
2021/03/22 04:41:01;;;;;;;0.80;0.80;;;17.90;66.20;;;;;;5042997;28;20083;-36
2021/03/22 04:43:27;;;;;;;0.80;0.80;;;17.90;66.10;;;;;;5046329;28;20046;-33
2021/03/22 04:45:53;;;;;;;0.77;0.77;;;17.90;66.30;;;;;;5049121;28;20025;-34
2021/03/22 04:48:18;;;;;;;1.13;1.02;;;17.90;66.30;;;;;;5050231;28;20032;-34
2021/03/22 04:50:44;;;;;;;1.10;1.00;;;17.90;66.10;;;;;;5051556;28;20575;-34
2021/03/22 04:53:10;;;;;;;1.00;1.00;;;17.90;66.10;;;;;;5050075;28;20029;-35
2021/03/22 04:55:35;;;;;;;0.90;0.90;;;17.90;66.00;;;;;;5049796;28;20055;-36
2021/03/22 04:58:01;;;;;;;1.38;0.90;;;17.90;66.10;;;;;;5048489;28;20048;-36
2021/03/22 05:00:36;;;;;;;1.20;1.00;;;17.90;65.90;;;;;;5050011;28;20028;-36
2021/03/22 05:03:01;;;;;;;0.80;0.80;;;17.90;66.10;;;;;;5048368;28;20076;-34
2021/03/22 05:05:27;;;;;;;0.75;0.75;;;17.80;66.00;;;;;;5049932;28;20049;-34
2021/03/22 05:07:53;;;;;;;0.80;0.73;;;17.80;66.30;;;;;;5048590;28;20410;-32
2021/03/22 05:10:24;;;;;;;1.10;1.00;;;17.80;66.30;;;;;;5043971;28;20025;-35
2021/03/22 05:12:50;;;;;;;0.90;0.90;;;17.90;66.20;;;;;;5035811;28;20033;-34
2021/03/22 05:15:18;;;;;;;0.90;0.90;;;17.80;66.10;;;;;;5046874;28;20614;-34
2021/03/22 05:17:44;;;;;;;0.70;0.70;;;17.90;66.00;;;;;;5050974;28;20041;-35
2021/03/22 05:20:12;;;;;;;1.15;0.70;;;17.80;66.00;;;;;;5048243;28;20032;-35
2021/03/22 05:22:37;;;;;;;1.35;0.80;;;17.80;66.10;;;;;;5048134;28;20411;-34
2021/03/22 05:25:04;;;;;;;1.10;1.00;;;17.80;65.90;;;;;;5048282;28;20021;-35
2021/03/22 05:27:29;;;;;;;0.90;0.90;;;17.90;65.70;;;;;;5034410;28;20025;-35
2021/03/22 05:29:55;;;;;;;0.60;0.60;;;17.90;66.00;;;;;;5052192;28;20044;-34
2021/03/22 05:32:31;;;;;;;0.60;0.60;;;17.90;65.60;;;;;;5049621;28;20035;-34
2021/03/22 05:34:57;;;;;;;0.88;0.77;;;18.00;65.40;;;;;;5047892;28;20485;-34
2021/03/22 05:37:23;;;;;;;1.00;1.00;;;18.00;65.40;;;;;;5047113;28;20057;-34
2021/03/22 05:39:48;;;;;;;0.60;0.60;;;17.90;65.50;;;;;;5048122;28;20024;-35
2021/03/22 05:42:35;;;;;;;0.68;0.68;;;17.90;65.40;;;;;;5048907;28;20029;-33
2021/03/22 05:45:10;;;;;;;0.80;0.80;;;18.00;65.40;;;;;;5043518;28;20048;-34
2021/03/22 05:47:45;;;;;;;0.80;0.80;;;17.90;65.30;;;;;;5050199;28;20028;-35
2021/03/22 05:50:14;;;;;;;1.02;0.60;;;17.90;65.50;;;;;;5043791;28;20067;-35
2021/03/22 05:52:55;;;;;;;1.35;1.13;;;17.90;66.40;;;;;;5044814;28;20494;-35
2021/03/22 05:55:37;;;;;;;1.15;1.05;;;17.70;66.90;;;;;;5043279;28;20044;-34
2021/03/22 05:58:12;;;;;;;0.70;0.70;;;17.70;65.60;;;;;;5044513;28;20025;-34
2021/03/22 06:00:51;;;;;;;0.70;0.70;;;17.80;66.40;;;;;;5034920;28;20033;-34
2021/03/22 06:03:35;;;;;;;0.90;0.90;;;17.80;65.40;;;;;;5030796;28;20142;-34
2021/03/22 06:06:16;;;;;;;0.75;0.70;;;17.70;66.10;;;;;;5047547;28;20021;-34
2021/03/22 06:09:02;;;;;;;1.25;0.90;;;17.80;66.10;;;;;;5046413;28;20033;-39
2021/03/22 06:11:34;;;;;;;0.80;0.80;;;17.80;65.80;;;;;;5041845;28;20442;-34
2021/03/22 06:14:24;;;;;;;1.10;0.85;;;17.90;65.40;;;;;;5039361;28;20120;-35
2021/03/22 06:17:01;;;;;;;1.63;1.13;;;17.80;65.40;;;;;;5029117;28;20529;-34
2021/03/22 06:19:27;;;;;;;1.77;1.13;;;17.80;64.70;;;;;;5031334;28;20025;-36
2021/03/22 06:21:52;;;;;;;1.13;0.80;;;17.90;64.70;;;;;;5048580;28;20044;-37
2021/03/22 06:24:20;;;;;;;2.35;1.10;;;17.90;64.60;;;;;;5040850;28;20029;-36
2021/03/22 06:26:47;;;;;;;2.15;0.90;;;17.90;65.20;;;;;;5046309;28;20025;-36
2021/03/22 06:29:33;;;;;;;1.52;0.90;;;17.90;64.70;;;;;;5032064;28;20099;-35
2021/03/22 06:32:13;;;;;;;2.35;1.10;;;17.70;67.50;;;;;;5015867;28;20060;-36
2021/03/22 06:35:00;;;;;;;1.23;1.13;;;17.60;65.80;;;;;;5053288;28;20025;-36
2021/03/22 06:37:32;;;;;;;5.43;1.15;;;17.60;67.60;;;;;;5051287;28;20029;-36
2021/03/22 06:40:08;;;;;;;1.55;1.05;;;17.60;66.50;;;;;;5056395;28;20087;-36
2021/03/22 06:42:33;;;;;;;2.80;0.95;;;17.70;66.70;;;;;;5045747;28;20033;-35
2021/03/22 06:44:59;;;;;;;1.27;1.17;;;17.70;67.20;;;;;;5046150;28;20034;-37
2021/03/22 06:47:32;;;;;;;2.08;1.30;;;17.60;66.80;;;;;;5051573;28;20032;-35
2021/03/22 06:50:23;;;;;;;1.20;1.10;;;17.60;67.60;;;;;;5042110;28;20025;-36
2021/03/22 06:52:49;;;;;;;2.00;1.00;;;17.60;66.50;;;;;;5053267;28;20025;-37
2021/03/22 06:55:35;;;;;;;3.95;1.00;;;17.50;66.60;;;;;;5053344;28;20033;-36
2021/03/22 06:58:00;;;;;;;3.72;0.95;;;17.50;66.70;;;;;;5053552;28;20037;-35
2021/03/22 07:00:36;;;;;;;1.15;0.80;;;17.50;66.70;;;;;;5053178;28;20138;-35
2021/03/22 07:03:21;;;;;;;1.00;0.95;;;17.50;66.40;;;;;;5049958;28;20142;-36
2021/03/22 07:05:46;;;;;;;3.60;0.80;;;17.50;65.90;;;;;;5051544;28;20055;-36
2021/03/22 07:08:13;;;;;;;3.03;1.08;;;17.50;67.00;;;;;;5046349;28;20033;-36
2021/03/22 07:10:43;;;;;;;1.35;0.93;;;17.60;66.40;;;;;;5052797;28;20028;-37
2021/03/22 07:13:15;;;;;;;4.15;1.77;;;17.60;65.70;;;;;;5053209;28;20044;-36
2021/03/22 07:15:40;;;;;;;5.78;1.20;;;17.60;65.10;;;;;;5052870;28;20021;-37
2021/03/22 07:18:26;;;;;;;1.52;0.90;;;17.50;66.30;;;;;;5052476;28;20070;-37
2021/03/22 07:20:55;;;;;;;2.03;1.10;;;17.50;66.80;;;;;;5052862;28;20060;-38
2021/03/22 07:23:23;;;;;;;1.30;1.20;;;17.50;66.40;;;;;;5052007;28;20037;-38
2021/03/22 07:25:58;;;;;;;1.35;1.20;;;17.50;65.80;;;;;;4700879;28;10000124;-38
2021/03/22 07:28:41;;;;;;;0.98;0.80;;;17.50;66.30;;;;;;5029080;28;20028;-37
2021/03/22 07:31:19;;;;;;;3.58;1.05;;;17.50;65.90;;;;;;5043136;28;20029;-37
2021/03/22 07:33:44;;;;;;;1.23;0.90;;;17.40;66.50;;;;;;5050639;28;20029;-36
2021/03/22 07:36:16;;;;;;;1.33;1.00;;;17.50;66.40;;;;;;5047991;28;20054;-37
2021/03/22 07:38:48;;;;;;;3.63;1.55;;;17.50;65.70;;;;;;5050082;28;20032;-35
2021/03/22 07:41:42;;;;;;;1.50;0.95;;;17.50;66.20;;;;;;5029333;28;20124;-36
2021/03/22 07:44:28;;;;;;;1.88;0.90;;;17.50;66.40;;;;;;5044248;28;20095;-35
2021/03/22 07:47:14;;;;;;;2.55;0.93;;;17.50;66.60;;;;;;5048382;28;20027;-36
2021/03/22 07:49:50;;;;;;;1.20;0.70;;;17.50;66.70;;;;;;5049167;28;20071;-36
2021/03/22 07:52:30;;;;;;;2.47;1.40;;;17.60;66.30;;;;;;5048095;28;20025;-37
2021/03/22 07:55:14;;;;;;;1.50;1.13;;;17.60;65.70;;;;;;5051519;28;20051;-36
2021/03/22 07:57:58;;;;;;;1.33;0.90;;;17.60;65.70;;;;;;5050056;28;20040;-36
2021/03/22 08:00:56;;;;;;;1.98;0.90;;;17.60;65.70;;;;;;5047203;28;20030;-37
2021/03/22 08:03:31;;;;;;;1.10;0.98;;;17.60;65.40;;;;;;5041910;28;20072;-36
2021/03/22 08:06:34;;;;;;;1.58;1.45;;;17.60;64.10;;;;;;5047022;28;20099;-38
2021/03/22 08:09:13;;;;;;;2.45;1.30;;;17.70;63.90;;;;;;5049524;28;20561;-37
2021/03/22 08:11:54;;;;;;;1.40;1.30;;;17.60;63.40;;;;;;5049308;28;20571;-36
2021/03/22 08:14:30;;;;;;;4.03;1.10;;;17.60;63.30;;;;;;5049746;28;20376;-36
2021/03/22 08:17:47;;;;;;;1.63;1.20;;;17.60;63.40;;;;;;5049964;28;20127;-35
2021/03/22 08:20:22;;;;;;;1.88;1.08;;;17.60;63.40;;;;;;4999556;28;20619;-36
2021/03/22 08:23:26;;;;;;;1.65;1.13;;;17.60;63.10;;;;;;5004362;28;20547;-35
2021/03/22 08:25:52;;;;;;;1.30;1.02;;;17.60;63.00;;;;;;4906063;29;20052;-36
2021/03/22 08:28:25;;;;;;;1.70;1.25;;;17.60;63.10;;;;;;4903265;29;20202;-35
2021/03/22 08:31:29;;;;;;;1.35;1.20;;;17.70;63.00;;;;;;4911863;29;20119;-41
2021/03/22 08:34:09;;;;;;;2.53;1.03;;;17.70;63.10;;;;;;4899778;29;20024;-36
2021/03/22 08:36:52;;;;;;;2.75;1.08;;;17.70;63.30;;;;;;4912555;29;20343;-35
2021/03/22 08:39:27;;;;;;;1.98;1.50;;;17.70;62.60;;;;;;4911701;29;20577;-36
2021/03/22 08:42:07;;;;;;;2.10;1.35;;;17.70;62.50;;;;;;4898973;29;20124;-35
2021/03/22 08:44:46;;;;;;;2.80;1.00;;;17.80;63.30;;;;;;4897193;29;20524;-36
2021/03/22 08:47:41;;;;;;;3.40;1.60;;;17.80;62.20;;;;;;4902669;29;20040;-35
2021/03/22 08:50:21;;;;;;;1.52;1.30;;;17.80;61.40;;;;;;4902196;29;20036;-37
2021/03/22 08:52:56;;;;;;;5.10;1.30;;;17.80;62.20;;;;;;4906220;29;20028;-37
2021/03/22 08:55:23;;;;;;;3.50;1.25;;;17.80;61.40;;;;;;4920535;29;20117;-37
2021/03/22 08:58:06;;;;;;;1.40;1.20;;;17.80;61.90;;;;;;5041567;28;22075;-36
2021/03/22 09:00:37;;;;;;;1.27;1.10;;;17.90;62.40;;;;;;5034565;28;20441;-37
2021/03/22 09:03:16;;;;;;;2.90;1.20;;;17.90;62.70;;;;;;5042426;28;20036;-36
2021/03/22 09:06:04;;;;;;;2.60;1.05;;;17.90;62.20;;;;;;5049040;28;20029;-36
2021/03/22 09:08:34;;;;;;;1.40;1.02;;;18.00;62.40;;;;;;5050053;28;20506;-35
2021/03/22 09:11:21;;;;;;;1.30;1.20;;;18.10;62.60;;;;;;5049020;28;20025;-36
2021/03/22 09:14:02;;;;;;;1.30;1.10;;;18.10;62.30;;;;;;5047526;28;20115;-36
2021/03/22 09:16:38;;;;;;;1.30;1.10;;;18.10;62.20;;;;;;5040823;28;20140;-35
2021/03/22 09:19:10;;;;;;;1.38;0.93;;;18.20;62.30;;;;;;5049914;28;20048;-36
2021/03/22 09:21:43;;;;;;;1.50;1.08;;;18.10;62.40;;;;;;5048878;28;20032;-35
2021/03/22 09:24:36;;;;;;;2.92;1.17;;;18.20;63.00;;;;;;5050031;28;20075;-35
2021/03/22 09:27:21;;;;;;;1.33;1.23;;;18.20;62.90;;;;;;5047057;28;20029;-34
2021/03/22 09:30:04;;;;;;;1.48;0.85;;;18.30;63.00;;;;;;5050780;28;20032;-36
2021/03/22 09:32:36;;;;;;;0.80;0.80;;;18.30;62.90;;;;;;5048994;28;20037;-36
2021/03/22 09:35:16;;;;;;;2.45;1.00;;;18.40;62.60;;;;;;5050226;28;20082;-36
2021/03/22 09:37:49;;;;;;;1.60;1.10;;;18.50;62.50;;;;;;5050229;28;20029;-36
2021/03/22 09:40:21;;;;;;;4.30;1.17;;;18.60;62.40;;;;;;5037815;28;20090;-34
2021/03/22 09:43:14;;;;;;;1.40;1.08;;;18.60;62.50;;;;;;5049156;28;20423;-36
2021/03/22 09:45:55;;;;;;;2.13;1.20;;;18.60;62.50;;;;;;5034713;28;20029;-36
2021/03/22 09:48:41;;;;;;;1.98;1.10;;;18.60;62.40;;;;;;5048907;28;20044;-34
2021/03/22 09:51:06;;;;;;;1.23;1.05;;;18.60;62.40;;;;;;5045474;28;20116;-35
2021/03/22 09:53:51;;;;;;;2.20;1.10;;;18.60;62.40;;;;;;5038874;28;20498;-36
2021/03/22 09:56:33;;;;;;;1.20;1.00;;;18.60;62.50;;;;;;5048803;28;20040;-34
2021/03/22 09:59:21;;;;;;;1.13;0.90;;;18.60;62.60;;;;;;5049060;28;20037;-35
2021/03/22 10:01:46;;;;;;;1.95;1.10;;;18.60;62.60;;;;;;5042816;28;20037;-36
2021/03/22 10:04:15;;;;;;;1.33;0.90;;;18.60;63.40;;;;;;5048874;28;20036;-35
2021/03/22 10:06:41;;;;;;;1.45;1.00;;;18.50;62.70;;;;;;5049603;28;20108;-34
2021/03/22 10:09:41;;;;;;;1.23;1.10;;;18.50;62.90;;;;;;5048774;28;20104;-35
2021/03/22 10:12:17;;;;;;;1.77;1.05;;;18.50;63.10;;;;;;5041517;28;20028;-36
2021/03/22 10:15:06;;;;;;;1.05;0.95;;;18.50;63.20;;;;;;5047140;28;20075;-36
2021/03/22 10:17:34;;;;;;;1.92;1.20;;;18.50;62.90;;;;;;5046520;28;20033;-38
2021/03/22 10:20:04;;;;;;;1.35;1.10;;;18.50;63.30;;;;;;5045432;28;20122;-38
2021/03/22 10:22:29;;;;;;;1.50;1.10;;;18.40;63.40;;;;;;5048317;28;20096;-38
2021/03/22 10:25:02;;;;;;;1.88;1.20;;;18.40;63.40;;;;;;5049466;28;20040;-36
2021/03/22 10:27:33;;;;;;;1.23;0.90;;;18.40;63.70;;;;;;5046501;28;20025;-36
2021/03/22 10:30:08;;;;;;;2.03;1.13;;;18.30;63.60;;;;;;5047696;28;20017;-32
2021/03/22 10:32:33;;;;;;;2.00;1.20;;;18.30;63.60;;;;;;5049227;28;20052;-34
2021/03/22 10:35:09;;;;;;;2.63;1.25;;;18.30;63.80;;;;;;5049162;28;20482;-32
2021/03/22 10:37:51;;;;;;;1.80;1.10;;;18.30;63.40;;;;;;5043065;28;20760;-37
2021/03/22 10:40:49;;;;;;;0.90;0.90;;;18.40;63.80;;;;;;5046309;28;20029;-33
2021/03/22 10:43:41;;;;;;;1.42;1.10;;;18.40;63.40;;;;;;4984998;28;20416;-35
2021/03/22 10:46:19;;;;;;;1.30;0.95;;;18.30;63.80;;;;;;4984764;28;20463;-34
2021/03/22 10:49:05;;;;;;;1.33;1.23;;;18.20;63.60;;;;;;4987049;28;20550;-36
2021/03/22 10:51:38;;;;;;;2.05;1.30;;;18.30;63.80;;;;;;4984209;28;20039;-36
2021/03/22 10:54:06;;;;;;;21.27;1.35;;;18.30;63.80;;;;;;4988085;28;20053;-34
2021/03/22 10:56:34;;;;;;;3.40;1.65;;;18.30;63.60;;;;;;4984241;28;20564;-35
2021/03/22 10:59:03;;;;;;;1.05;0.95;;;18.40;63.50;;;;;;4963017;28;20046;-34
2021/03/22 11:01:33;;;;;;;2.75;1.05;;;18.50;63.30;;;;;;4969090;28;20145;-34
2021/03/22 11:04:11;;;;;;;1.25;1.08;;;18.50;63.10;;;;;;4985493;28;20047;-34
2021/03/22 11:06:38;;;;;;;1.27;1.17;;;18.60;62.90;;;;;;4985023;28;20493;-35
2021/03/22 11:09:07;;;;;;;1.67;1.20;;;18.60;62.80;;;;;;4972907;28;20034;-35
2021/03/22 11:11:32;;;;;;;1.30;1.10;;;18.70;62.50;;;;;;4988868;28;20042;-33
2021/03/22 11:14:03;;;;;;;2.15;1.00;;;18.70;62.30;;;;;;4989910;28;20030;-35
2021/03/22 11:16:29;;;;;;;3.20;1.30;;;18.80;62.10;;;;;;4972721;28;20061;-35
2021/03/22 11:18:55;;;;;;;0.80;0.80;;;18.80;62.20;;;;;;5004323;28;20426;-35
2021/03/22 11:21:22;;;;;;;1.13;0.90;;;18.80;62.10;;;;;;5048037;28;20079;-35
2021/03/22 11:23:49;;;;;;;1.50;1.08;;;18.80;62.10;;;;;;5064685;28;20047;-37
2021/03/22 11:26:31;;;;;;;1.23;1.05;;;18.80;62.10;;;;;;4702981;28;10000366;-32
2021/03/22 11:29:15;;;;;;;1.50;1.20;;;18.80;62.10;;;;;;5045016;28;20032;-36
2021/03/22 11:31:41;;;;;;;2.00;1.02;;;18.80;61.30;;;;;;5047728;28;20442;-33
2021/03/22 11:34:21;;;;;;;1.85;1.70;;;18.80;60.50;;;;;;5047566;28;20071;-33
2021/03/22 11:36:46;;;;;;;1.90;1.60;;;18.90;58.30;;;;;;5051695;28;20033;-36
2021/03/22 11:39:12;;;;;;;2.13;1.83;;;18.90;58.90;;;;;;5048395;28;20064;-35
2021/03/22 11:41:43;;;;;;;2.72;2.00;;;18.90;59.30;;;;;;5052316;28;20029;-34
2021/03/22 11:44:16;;;;;;;2.55;1.73;;;18.90;59.00;;;;;;5047056;28;20049;-33
2021/03/22 11:46:43;;;;;;;3.58;2.03;;;18.90;58.40;;;;;;5040037;28;20033;-37
2021/03/22 11:49:48;;;;;;;3.67;1.85;;;18.80;58.50;;;;;;5046136;28;20516;-34
2021/03/22 11:52:18;;;;;;;1.88;1.58;;;18.80;60.20;;;;;;5045062;28;20052;-38
2021/03/22 11:54:51;;;;;;;2.92;1.52;;;18.90;61.00;;;;;;5047557;28;20044;-34
2021/03/22 11:57:19;;;;;;;2.15;1.67;;;18.90;61.10;;;;;;5036560;28;20620;-34
2021/03/22 11:59:52;;;;;;;2.75;1.70;;;18.90;60.80;;;;;;5047353;28;20033;-32
2021/03/22 12:02:43;;;;;;;1.80;1.65;;;18.90;60.90;;;;;;5046770;28;20433;-32
2021/03/22 12:05:30;;;;;;;1.73;1.60;;;18.90;61.00;;;;;;5048608;28;20120;-35
2021/03/22 12:07:56;;;;;;;2.85;1.70;;;18.90;61.20;;;;;;5046970;28;20115;-33
2021/03/22 12:10:24;;;;;;;1.60;1.40;;;18.80;61.30;;;;;;5048950;28;20108;-34
2021/03/22 12:12:49;;;;;;;1.60;1.50;;;18.80;61.30;;;;;;5050097;28;20033;-33
2021/03/22 12:15:16;;;;;;;2.42;1.83;;;18.80;61.50;;;;;;5051546;28;20033;-42
2021/03/22 12:17:42;;;;;;;3.15;1.98;;;18.80;61.00;;;;;;5051247;28;20056;-37
2021/03/22 12:20:20;;;;;;;2.05;1.95;;;18.80;61.20;;;;;;5050423;28;20047;-35
2021/03/22 12:22:46;;;;;;;3.15;2.05;;;18.70;60.90;;;;;;5049944;28;20075;-35
2021/03/22 12:25:16;;;;;;;1.90;1.80;;;18.70;60.90;;;;;;5051510;28;20451;-33
2021/03/22 12:27:42;;;;;;;2.15;1.50;;;18.70;61.40;;;;;;5050256;28;20110;-34
2021/03/22 12:30:08;;;;;;;3.83;2.10;;;18.70;61.50;;;;;;5049710;28;20491;-35
2021/03/22 12:32:34;;;;;;;1.95;1.85;;;18.70;61.70;;;;;;5041525;28;20030;-32
2021/03/22 12:34:59;;;;;;;2.10;1.90;;;18.70;61.20;;;;;;5046164;28;20033;-34
2021/03/22 12:37:30;;;;;;;2.50;2.30;;;18.70;60.10;;;;;;5050532;28;20033;-33
2021/03/22 12:39:56;;;;;;;2.08;1.92;;;18.70;60.70;;;;;;5051494;28;20025;-33
2021/03/22 12:42:22;;;;;;;1.90;1.42;;;18.70;60.90;;;;;;5050331;28;20086;-34
2021/03/22 12:44:48;;;;;;;2.13;1.80;;;18.70;61.40;;;;;;5049668;28;20029;-33
2021/03/22 12:47:26;;;;;;;2.42;2.15;;;18.70;61.30;;;;;;5050831;28;20040;-33
2021/03/22 12:49:52;;;;;;;2.53;2.03;;;18.60;61.30;;;;;;5050958;28;20021;-34
2021/03/22 12:52:18;;;;;;;4.20;1.70;;;18.70;60.90;;;;;;5050707;28;20037;-34
2021/03/22 12:54:43;;;;;;;1.65;1.50;;;18.70;61.20;;;;;;5050900;28;20506;-34
2021/03/22 12:57:21;;;;;;;2.10;1.90;;;18.70;61.30;;;;;;5050828;28;20112;-34
2021/03/22 12:59:47;;;;;;;2.97;1.63;;;18.70;61.30;;;;;;5037536;28;20617;-34
2021/03/22 13:02:13;;;;;;;3.47;1.48;;;18.70;61.30;;;;;;5047240;28;20040;-34
2021/03/22 13:04:39;;;;;;;1.50;1.40;;;18.80;61.20;;;;;;5050009;28;20070;-34
2021/03/22 13:07:05;;;;;;;1.60;1.50;;;18.80;61.00;;;;;;5050145;28;20028;-35
2021/03/22 13:09:30;;;;;;;1.70;1.40;;;18.80;61.00;;;;;;5050037;28;20043;-33
2021/03/22 13:11:56;;;;;;;2.00;1.67;;;18.70;61.40;;;;;;5049305;28;20052;-35
2021/03/22 13:14:21;;;;;;;2.08;1.60;;;18.80;61.50;;;;;;5046657;28;20021;-33